createdAt,value
2022-08-09T00:00:52.005Z,99.80
2022-08-09T00:03:01.157Z,99.60
2022-08-09T00:06:18.957Z,99.50
2022-08-09T00:07:45.741Z,99.30
2022-08-09T00:09:53.163Z,99.10
2022-08-09T00:12:03.649Z,98.90
2022-08-09T00:14:12.704Z,98.70
2022-08-09T00:16:38.305Z,98.50
2022-08-09T00:18:45.805Z,98.40
2022-08-09T00:20:53.139Z,98.20
2022-08-09T00:23:08.359Z,97.90
2022-08-09T00:25:32.899Z,97.70
2022-08-09T00:27:43.038Z,97.50
2022-08-09T00:30:24.330Z,97.40
2022-08-09T00:32:27.261Z,97.40
2022-08-09T00:34:34.968Z,97.40
2022-08-09T00:36:43.207Z,97.20
2022-08-09T00:38:51.670Z,97.00
2022-08-09T00:40:59.299Z,96.90
2022-08-09T00:44:10.258Z,96.70
2022-08-09T00:45:34.771Z,96.60
2022-08-09T00:47:45.480Z,96.50
2022-08-09T00:49:54.826Z,96.40
2022-08-09T00:52:05.958Z,96.30
2022-08-09T00:54:13.584Z,96.30
2022-08-09T00:56:23.323Z,96.00
2022-08-09T00:58:32.455Z,95.90
2022-08-09T01:00:43.932Z,95.80
2022-08-09T01:02:56.336Z,95.70
2022-08-09T01:05:14.292Z,95.60
2022-08-09T01:07:38.075Z,95.60
2022-08-09T01:10:03.201Z,95.70
2022-08-09T01:12:21.234Z,95.80
2022-08-09T01:14:34.360Z,95.90
2022-08-09T01:16:47.173Z,95.50
2022-08-09T01:19:04.424Z,95.60
2022-08-09T01:21:41.227Z,95.60
2022-08-09T01:24:04.918Z,95.00
2022-08-09T01:26:26.153Z,95.10
2022-08-09T01:28:35.430Z,95.00
2022-08-09T01:30:51.831Z,94.80
2022-08-09T01:33:01.153Z,94.80
2022-08-09T01:35:28.171Z,94.60
2022-08-09T01:38:07.730Z,94.40
2022-08-09T01:40:12.924Z,94.40
2022-08-09T01:42:32.682Z,94.30
2022-08-09T01:44:44.238Z,94.00
2022-08-09T01:46:54.816Z,93.90
2022-08-09T01:49:09.363Z,93.70
2022-08-09T01:51:22.940Z,93.70
2022-08-09T01:53:41.537Z,93.60
2022-08-09T01:55:50.962Z,93.50
2022-08-09T01:58:03.683Z,93.40
2022-08-09T02:00:35.614Z,93.20
2022-08-09T02:02:45.385Z,93.00
2022-08-09T02:04:53.603Z,92.90
2022-08-09T02:07:18.405Z,92.90
2022-08-09T02:09:59.508Z,92.70
2022-08-09T02:12:10.583Z,92.70
2022-08-09T02:14:25.298Z,92.70
2022-08-09T02:16:53.277Z,92.60
2022-08-09T02:19:05.404Z,92.40
2022-08-09T02:21:17.112Z,92.10
2022-08-09T02:23:42.699Z,92.20
2022-08-09T02:25:56.853Z,92.10
2022-08-09T02:28:10.338Z,92.10
2022-08-09T02:30:26.346Z,92.00
2022-08-09T02:32:41.183Z,91.90
2022-08-09T02:34:55.855Z,91.80
2022-08-09T02:37:07.063Z,91.80
2022-08-09T02:39:33.395Z,91.70
2022-08-09T02:41:45.179Z,91.50
2022-08-09T02:43:55.441Z,91.30
2022-08-09T02:46:10.397Z,90.90
2022-08-09T02:48:31.061Z,90.30
2022-08-09T02:50:43.049Z,90.00
2022-08-09T02:52:55.448Z,89.80
2022-08-09T02:55:20.324Z,89.90
2022-08-09T02:57:30.034Z,89.60
2022-08-09T03:00:20.369Z,89.40
2022-08-09T03:02:18.107Z,89.00
2022-08-09T03:04:29.669Z,88.50
2022-08-09T03:06:38.697Z,88.50
2022-08-09T03:08:49.161Z,88.20
2022-08-09T03:10:57.836Z,88.10
2022-08-09T03:13:09.941Z,88.00
2022-08-09T03:15:18.993Z,88.30
2022-08-09T03:17:28.070Z,87.90
2022-08-09T03:19:59.481Z,87.40
2022-08-09T03:22:05.991Z,87.10
2022-08-09T03:24:31.699Z,86.80
2022-08-09T03:26:47.646Z,86.40
2022-08-09T03:29:01.785Z,86.00
2022-08-09T03:31:22.839Z,85.50
2022-08-09T03:33:51.601Z,85.40
2022-08-09T03:36:12.584Z,85.10
2022-08-09T03:38:28.879Z,85.40
2022-08-09T03:40:37.955Z,85.50
2022-08-09T03:42:50.612Z,85.40
2022-08-09T03:44:57.750Z,84.80
2022-08-09T03:47:04.930Z,84.00
2022-08-09T03:49:17.486Z,84.00
2022-08-09T03:51:54.207Z,84.00
2022-08-09T03:53:57.956Z,84.30
2022-08-09T03:56:07.700Z,84.50
2022-08-09T03:58:16.851Z,84.30
2022-08-09T04:00:30.709Z,84.10
2022-08-09T04:02:39.083Z,82.40
2022-08-09T04:04:52.859Z,84.00
2022-08-09T04:07:01.784Z,84.20
2022-08-09T04:09:41.497Z,83.30
2022-08-09T04:12:00.587Z,83.00
2022-08-09T04:14:52.768Z,83.80
2022-08-09T04:16:36.872Z,83.60
2022-08-09T04:18:44.403Z,83.70
2022-08-09T04:20:53.334Z,83.60
2022-08-09T04:23:02.664Z,83.10
2022-08-09T04:25:17.168Z,83.10
2022-08-09T04:27:26.086Z,82.70
2022-08-09T04:29:36.390Z,82.40
2022-08-09T04:31:47.223Z,82.50
2022-08-09T04:33:57.077Z,82.50
2022-08-09T04:36:06.589Z,82.80
2022-08-09T04:38:16.695Z,82.80
2022-08-09T04:40:46.222Z,82.40
2022-08-09T04:42:53.378Z,81.70
2022-08-09T04:45:01.380Z,82.00
2022-08-09T04:47:09.070Z,82.40
2022-08-09T04:49:16.304Z,82.30
2022-08-09T04:51:29.579Z,81.80
2022-08-09T04:53:44.193Z,82.00
2022-08-09T04:55:57.736Z,81.20
2022-08-09T04:58:09.491Z,80.70
2022-08-09T05:00:18.026Z,80.10
2022-08-09T05:02:27.510Z,79.70
2022-08-09T05:04:35.064Z,79.90
2022-08-09T05:06:44.151Z,79.30
2022-08-09T05:08:53.403Z,79.30
2022-08-09T05:11:08.461Z,78.90
2022-08-09T05:13:16.265Z,79.10
2022-08-09T05:15:42.692Z,79.00
2022-08-09T05:18:42.926Z,79.10
2022-08-09T05:20:19.744Z,78.30
2022-08-09T05:22:33.493Z,77.70
2022-08-09T05:24:47.677Z,77.30
2022-08-09T05:26:54.961Z,76.90
2022-08-09T05:29:03.829Z,76.70
2022-08-09T05:31:11.160Z,76.40
2022-08-09T05:33:18.445Z,76.80
2022-08-09T05:35:25.634Z,76.60
2022-08-09T05:37:38.175Z,75.70
2022-08-09T05:39:57.126Z,76.00
2022-08-09T05:42:06.022Z,75.10
2022-08-09T05:44:13.913Z,75.00
2022-08-09T05:46:29.341Z,75.70
2022-08-09T05:48:37.080Z,75.90
2022-08-09T05:51:03.366Z,75.70
2022-08-09T05:53:21.642Z,75.80
2022-08-09T05:55:41.746Z,76.00
2022-08-09T05:57:57.000Z,75.90
2022-08-09T06:00:17.294Z,75.70
2022-08-09T06:02:24.889Z,77.20
2022-08-09T06:04:35.004Z,76.50
2022-08-09T06:06:49.702Z,75.90
2022-08-09T06:08:57.393Z,76.60
2022-08-09T06:11:17.646Z,76.80
2022-08-09T06:13:25.372Z,76.60
2022-08-09T06:15:35.932Z,76.30
2022-08-09T06:17:43.268Z,76.70
2022-08-09T06:19:54.552Z,77.30
2022-08-09T06:22:02.035Z,77.80
2022-08-09T06:24:11.060Z,77.90
2022-08-09T06:26:22.568Z,78.30
2022-08-09T06:28:35.563Z,77.90
2022-08-09T06:30:45.256Z,77.70
2022-08-09T06:33:13.688Z,77.70
2022-08-09T06:35:20.914Z,78.40
2022-08-09T06:37:52.827Z,78.80
2022-08-09T06:40:21.903Z,78.80
2022-08-09T06:42:32.483Z,78.90
2022-08-09T06:44:40.841Z,78.40
2022-08-09T06:46:49.798Z,78.60
2022-08-09T06:49:02.532Z,78.80
2022-08-09T06:51:09.908Z,78.60
2022-08-09T06:53:17.961Z,78.30
2022-08-09T06:55:31.181Z,78.70
2022-08-09T06:58:01.992Z,77.80
2022-08-09T07:00:55.291Z,78.00
2022-08-09T07:02:37.042Z,77.60
2022-08-09T07:04:46.200Z,78.00
2022-08-09T07:06:59.990Z,78.40
2022-08-09T07:09:07.988Z,78.70
2022-08-09T07:11:52.364Z,79.00
2022-08-09T07:14:05.209Z,79.00
2022-08-09T07:16:41.263Z,78.80
2022-08-09T07:18:40.761Z,78.90
2022-08-09T07:20:48.154Z,78.60
2022-08-09T07:22:59.222Z,78.40
2022-08-09T07:25:09.876Z,77.90
2022-08-09T07:27:27.128Z,78.10
2022-08-09T07:29:43.649Z,78.20
2022-08-09T07:31:53.957Z,78.30
2022-08-09T07:34:05.236Z,78.70
2022-08-09T07:36:12.732Z,78.00
2022-08-09T07:38:20.527Z,78.10
2022-08-09T07:40:46.458Z,77.80
2022-08-09T07:43:00.235Z,77.60
2022-08-09T07:45:36.945Z,77.20
2022-08-09T07:47:39.534Z,77.70
2022-08-09T07:50:08.006Z,78.00
2022-08-09T07:52:19.945Z,78.20
2022-08-09T07:54:30.252Z,78.40
2022-08-09T07:56:48.611Z,78.20
2022-08-09T07:58:56.600Z,78.00
2022-08-09T08:01:11.143Z,78.10
2022-08-09T08:03:19.003Z,78.10
2022-08-09T08:05:39.247Z,77.90
2022-08-09T08:09:00.719Z,77.40
2022-08-09T08:10:27.280Z,77.20
2022-08-09T08:12:34.731Z,76.60
2022-08-09T08:14:44.371Z,77.20
2022-08-09T08:17:00.630Z,77.80
2022-08-09T08:19:15.322Z,77.30
2022-08-09T08:21:22.713Z,77.20
2022-08-09T08:23:31.769Z,76.80
2022-08-09T08:25:44.308Z,76.90
2022-08-09T08:27:53.675Z,77.50
2022-08-09T08:30:00.938Z,77.70
2022-08-09T08:32:13.361Z,77.50
2022-08-09T08:34:31.809Z,77.80
2022-08-09T08:36:42.266Z,77.40
2022-08-09T08:38:49.401Z,76.70
2022-08-09T08:40:58.162Z,76.10
2022-08-09T08:43:08.947Z,75.80
2022-08-09T08:45:37.050Z,75.40
2022-08-09T08:47:48.745Z,74.60
2022-08-09T08:50:03.146Z,74.50
2022-08-09T08:52:20.322Z,74.50
2022-08-09T08:54:39.315Z,74.30
2022-08-09T08:56:46.657Z,74.30
2022-08-09T08:58:56.651Z,74.10
2022-08-09T09:01:09.107Z,73.70
2022-08-09T09:03:37.047Z,73.40
2022-08-09T09:06:00.416Z,73.30
2022-08-09T09:08:30.991Z,73.20
2022-08-09T09:10:41.530Z,73.90
2022-08-09T09:12:49.940Z,74.40
2022-08-09T09:15:00.347Z,74.70
2022-08-09T09:17:10.588Z,74.30
2022-08-09T09:19:37.831Z,73.90
2022-08-09T09:22:11.734Z,74.20
2022-08-09T09:24:21.433Z,74.90
2022-08-09T09:26:29.247Z,75.20
2022-08-09T09:29:02.567Z,75.10
2022-08-09T09:31:07.110Z,74.80
2022-08-09T09:33:44.715Z,74.50
2022-08-09T09:36:04.016Z,74.40
2022-08-09T09:38:42.785Z,74.40
2022-08-09T09:40:50.285Z,74.40
2022-08-09T09:43:00.130Z,74.50
2022-08-09T09:45:14.454Z,74.70
2022-08-09T09:47:37.992Z,74.90
2022-08-09T09:50:14.429Z,75.00
2022-08-09T09:52:36.663Z,74.80
2022-08-09T09:54:48.820Z,74.80
2022-08-09T09:58:03.151Z,74.80
2022-08-09T09:59:38.374Z,75.00
2022-08-09T10:01:47.327Z,74.90
2022-08-09T10:03:59.181Z,75.10
2022-08-09T10:06:07.864Z,75.10
2022-08-09T10:08:28.056Z,75.30
2022-08-09T10:10:36.506Z,75.60
2022-08-09T10:12:49.829Z,76.10
2022-08-09T10:15:17.190Z,76.50
2022-08-09T10:17:51.284Z,76.80
2022-08-09T10:20:04.469Z,77.40
2022-08-09T10:22:11.605Z,77.80
2022-08-09T10:24:25.654Z,77.90
2022-08-09T10:26:44.701Z,77.80
2022-08-09T10:29:21.440Z,78.00
2022-08-09T10:34:09.063Z,78.50
2022-08-09T10:36:18.806Z,78.30
2022-08-09T10:38:55.524Z,75.00
2022-08-09T10:40:56.919Z,74.90
2022-08-09T10:43:04.374Z,74.50
2022-08-09T10:45:16.988Z,75.00
2022-08-09T10:48:17.275Z,74.30
2022-08-09T10:50:31.391Z,75.10
2022-08-09T10:53:00.055Z,75.60
2022-08-09T10:55:23.642Z,76.30
2022-08-09T10:57:41.827Z,78.80
2022-08-09T10:59:58.099Z,81.40
2022-08-09T11:03:14.618Z,82.60
2022-08-09T11:04:38.278Z,83.60
2022-08-09T11:07:54.982Z,84.50
2022-08-09T11:10:02.304Z,85.30
2022-08-09T11:12:17.616Z,86.20
2022-08-09T11:14:37.911Z,86.30
2022-08-09T11:16:47.150Z,87.30
2022-08-09T11:18:54.786Z,87.30
2022-08-09T11:21:03.498Z,87.30
2022-08-09T11:23:12.470Z,87.30
2022-08-09T11:25:25.887Z,87.80
2022-08-09T11:28:02.450Z,88.10
2022-08-09T11:30:06.362Z,88.00
2022-08-09T11:32:47.860Z,88.00
2022-08-09T11:34:57.854Z,88.30
2022-08-09T11:37:07.876Z,88.10
2022-08-09T11:39:15.130Z,88.00
2022-08-09T11:41:38.119Z,87.90
2022-08-09T11:43:53.257Z,88.00
2022-08-09T11:46:04.025Z,88.00
2022-08-09T11:48:25.115Z,88.10
2022-08-09T11:52:53.753Z,88.40
2022-08-09T11:54:01.210Z,88.50
2022-08-09T11:56:02.816Z,88.80
2022-08-09T11:58:50.134Z,88.50
2022-08-09T12:01:01.103Z,88.70
2022-08-09T12:03:56.543Z,88.60
2022-08-09T12:05:48.085Z,89.60
2022-08-09T12:07:56.504Z,89.50
2022-08-09T12:10:06.553Z,89.70
2022-08-09T12:12:29.094Z,90.00
2022-08-09T12:15:03.586Z,90.30
2022-08-09T12:17:34.733Z,90.70
2022-08-09T12:19:40.182Z,90.90
2022-08-09T12:21:52.453Z,91.20
2022-08-09T12:24:09.163Z,91.40
2022-08-09T12:26:25.725Z,91.60
2022-08-09T12:29:11.259Z,91.60
2022-08-09T12:31:02.196Z,91.70
2022-08-09T12:33:09.720Z,91.80
2022-08-09T12:35:22.106Z,92.20
2022-08-09T12:37:44.197Z,92.60
2022-08-09T12:40:08.600Z,92.90
2022-08-09T12:42:17.261Z,93.30
2022-08-09T12:44:24.949Z,93.30
2022-08-09T12:46:48.570Z,93.30
2022-08-09T12:48:57.436Z,93.40
2022-08-09T12:51:07.397Z,93.40
2022-08-09T12:53:36.729Z,93.90
2022-08-09T12:56:14.860Z,94.40
2022-08-09T12:58:27.449Z,94.30
2022-08-09T13:00:36.229Z,96.50
2022-08-09T13:02:54.922Z,96.10
2022-08-09T13:05:05.646Z,96.10
2022-08-09T13:07:40.946Z,95.90
2022-08-09T13:09:55.822Z,96.80
2022-08-09T13:12:09.629Z,97.00
2022-08-09T13:14:41.459Z,96.90
2022-08-09T13:16:48.359Z,96.70
2022-08-09T13:18:56.770Z,96.30
2022-08-09T13:22:37.087Z,96.80
2022-08-09T13:24:44.658Z,97.40
2022-08-09T13:26:37.110Z,96.90
2022-08-09T13:28:44.915Z,96.70
2022-08-09T13:32:12.486Z,97.30
2022-08-09T13:33:52.609Z,97.50
2022-08-09T13:36:37.503Z,98.80
2022-08-09T13:38:54.378Z,99.50
2022-08-09T13:41:31.190Z,99.70
2022-08-09T13:43:35.925Z,99.90
2022-08-09T13:46:44.396Z,99.90
2022-08-09T13:48:15.672Z,99.90
2022-08-09T13:50:30.952Z,99.90
2022-08-09T13:52:38.933Z,99.90
2022-08-09T13:54:59.380Z,99.90
2022-08-09T13:57:14.300Z,99.90
2022-08-09T13:59:42.185Z,99.90
2022-08-09T14:02:00.622Z,99.90
2022-08-09T14:04:11.548Z,99.90
2022-08-09T14:06:26.495Z,99.90
2022-08-09T14:08:34.283Z,99.90
2022-08-09T14:10:49.015Z,99.90
2022-08-09T14:13:00.925Z,99.90
2022-08-09T14:16:06.349Z,99.90
2022-08-09T14:18:16.705Z,99.90
2022-08-09T14:20:07.173Z,99.90
2022-08-09T14:22:14.257Z,99.90
2022-08-09T14:24:22.192Z,99.90
2022-08-09T14:26:39.828Z,99.90
2022-08-09T14:28:48.701Z,99.90
2022-08-09T14:30:55.928Z,99.90
2022-08-09T14:33:08.261Z,99.90
2022-08-09T14:35:18.686Z,99.90
2022-08-09T14:37:28.425Z,99.50
2022-08-09T14:39:39.909Z,99.40
2022-08-09T14:41:53.236Z,99.90
2022-08-09T14:44:03.666Z,99.80
2022-08-09T14:46:58.753Z,99.90
2022-08-09T14:48:38.333Z,99.90
2022-08-09T14:50:45.598Z,99.90
2022-08-09T14:52:53.364Z,99.90
2022-08-09T14:55:01.673Z,99.90
2022-08-09T14:57:09.464Z,99.90
2022-08-09T14:59:18.507Z,99.90
2022-08-09T15:01:28.633Z,99.90
2022-08-09T15:03:35.772Z,99.90
2022-08-09T15:05:52.607Z,99.90
2022-08-09T15:08:05.452Z,99.90
2022-08-09T15:10:14.560Z,99.90
2022-08-09T15:12:23.495Z,99.90
2022-08-09T15:14:38.824Z,99.90
2022-08-09T15:16:46.205Z,99.90
2022-08-09T15:18:56.107Z,99.90
2022-08-09T15:21:57.535Z,99.90
2022-08-09T15:24:01.309Z,99.90
2022-08-09T15:26:02.290Z,99.90
2022-08-09T15:28:26.443Z,99.90
2022-08-09T15:30:48.699Z,99.90
2022-08-09T15:33:07.293Z,99.70
2022-08-09T15:35:18.286Z,99.60
2022-08-09T15:38:00.697Z,99.60
2022-08-09T15:40:36.590Z,99.50
2022-08-09T15:42:44.387Z,99.20
2022-08-09T15:44:51.620Z,99.00
2022-08-09T15:47:00.960Z,99.10
2022-08-09T15:49:21.948Z,99.10
2022-08-09T15:52:02.084Z,99.30
2022-08-09T15:54:07.027Z,99.30
2022-08-09T15:56:28.934Z,99.40
2022-08-09T15:58:38.293Z,99.50
2022-08-09T16:00:46.482Z,99.50
2022-08-09T16:02:59.114Z,99.40
2022-08-09T16:05:09.673Z,99.30
2022-08-09T16:07:17.171Z,99.30
2022-08-09T16:09:51.544Z,99.40
2022-08-09T16:11:57.110Z,99.40
2022-08-09T16:14:08.282Z,99.60
2022-08-09T16:16:17.439Z,99.50
2022-08-09T16:18:27.737Z,99.50
2022-08-09T16:20:35.837Z,99.50
2022-08-09T16:22:48.822Z,99.40
2022-08-09T16:24:56.902Z,99.60
2022-08-09T16:27:06.855Z,99.60
2022-08-09T16:29:20.035Z,99.40
2022-08-09T16:31:38.346Z,99.30
2022-08-09T16:33:56.413Z,99.20
2022-08-09T16:36:18.395Z,99.20
2022-08-09T16:38:26.085Z,99.20
2022-08-09T16:40:40.398Z,99.10
2022-08-09T16:42:48.680Z,98.90
2022-08-09T16:44:56.075Z,98.80
2022-08-09T16:47:04.170Z,98.80
2022-08-09T16:50:32.578Z,98.80
2022-08-09T16:51:59.451Z,99.00
2022-08-09T16:54:25.670Z,99.00
2022-08-09T16:56:33.980Z,99.00
2022-08-09T16:58:49.720Z,98.90
2022-08-09T17:00:58.249Z,98.80
2022-08-09T17:03:05.658Z,98.90
2022-08-09T17:05:19.958Z,98.90
2022-08-09T17:08:44.044Z,98.80
2022-08-09T17:10:01.979Z,98.90
2022-08-09T17:12:11.918Z,99.00
2022-08-09T17:14:27.264Z,99.10
2022-08-09T17:16:38.243Z,99.30
2022-08-09T17:18:45.595Z,99.20
2022-08-09T17:20:57.297Z,99.20
2022-08-09T17:23:04.365Z,99.20
2022-08-09T17:25:13.599Z,99.20
2022-08-09T17:27:20.680Z,99.20
2022-08-09T17:29:31.365Z,99.20
2022-08-09T17:31:40.328Z,99.20
2022-08-09T17:33:47.913Z,99.20
2022-08-09T17:36:02.481Z,99.40
2022-08-09T17:38:13.922Z,99.40
2022-08-09T17:40:38.652Z,99.50
2022-08-09T17:42:55.734Z,99.60
2022-08-09T17:45:16.206Z,99.50
2022-08-09T17:47:49.268Z,99.30
2022-08-09T17:50:10.917Z,99.20
2022-08-09T17:52:25.868Z,98.70
2022-08-09T17:54:34.581Z,98.50
2022-08-09T17:56:43.433Z,98.50
2022-08-09T17:58:52.378Z,98.40
2022-08-09T18:00:59.735Z,98.40
2022-08-09T18:03:07.388Z,98.20
2022-08-09T18:05:14.889Z,98.20
2022-08-09T18:07:24.091Z,98.10
2022-08-09T18:09:41.730Z,98.10
2022-08-09T18:12:14.458Z,98.10
2022-08-09T18:14:17.514Z,98.00
2022-08-09T18:16:29.153Z,97.90
2022-08-09T18:18:43.190Z,97.80
2022-08-09T18:21:18.984Z,97.70
2022-08-09T18:24:09.674Z,97.70
2022-08-09T18:25:57.789Z,97.70
2022-08-09T18:28:08.507Z,97.80
2022-08-09T18:30:39.574Z,97.90
2022-08-09T18:32:56.501Z,98.00
2022-08-09T18:35:03.518Z,98.10
2022-08-09T18:37:47.657Z,98.00
2022-08-09T18:39:48.535Z,98.10
2022-08-09T18:41:56.198Z,98.10
2022-08-09T18:44:12.525Z,98.00
2022-08-09T18:46:46.218Z,98.00
2022-08-09T18:48:48.054Z,98.10
2022-08-09T18:50:58.260Z,98.20
2022-08-09T18:53:05.343Z,98.20
2022-08-09T18:55:45.779Z,98.20
2022-08-09T18:57:49.802Z,98.40
2022-08-09T19:00:04.314Z,98.60
2022-08-09T19:02:11.922Z,98.50
2022-08-09T19:04:34.472Z,98.30
2022-08-09T19:06:43.534Z,98.50
2022-08-09T19:09:02.512Z,98.50
2022-08-09T19:11:12.167Z,98.60
2022-08-09T19:13:23.022Z,98.60
2022-08-09T19:15:47.281Z,98.70
2022-08-09T19:17:58.940Z,98.80
2022-08-09T19:20:06.952Z,98.80
2022-08-09T19:22:15.149Z,98.80
2022-08-09T19:24:32.259Z,98.90
2022-08-09T19:26:51.473Z,99.00
2022-08-09T19:29:01.498Z,99.10
2022-08-09T19:31:09.589Z,99.10
2022-08-09T19:33:19.143Z,99.10
2022-08-09T19:35:27.896Z,99.20
2022-08-09T19:37:57.690Z,99.20
2022-08-09T19:40:05.774Z,99.30
2022-08-09T19:42:19.809Z,99.20
2022-08-09T19:44:31.284Z,99.30
2022-08-09T19:46:50.260Z,99.40
2022-08-09T19:50:08.175Z,99.30
2022-08-09T19:51:31.037Z,99.40
2022-08-09T19:53:45.616Z,99.40
2022-08-09T19:56:06.067Z,99.30
2022-08-09T19:58:16.659Z,99.20
2022-08-09T20:00:24.601Z,99.30
2022-08-09T20:04:13.853Z,99.40
2022-08-09T20:04:59.094Z,99.30
2022-08-09T20:07:07.423Z,99.30
2022-08-09T20:09:44.013Z,99.40
2022-08-09T20:11:51.938Z,99.70
2022-08-09T20:14:02.248Z,99.90
2022-08-09T20:16:38.604Z,99.90
2022-08-09T20:18:38.629Z,99.90
2022-08-09T20:21:08.453Z,99.90
2022-08-09T20:23:15.883Z,99.90
2022-08-09T20:25:23.423Z,99.90
2022-08-09T20:27:30.806Z,99.90
2022-08-09T20:29:40.644Z,99.90
2022-08-09T20:32:17.037Z,99.90
2022-08-09T20:34:16.063Z,99.90
2022-08-09T20:36:24.054Z,99.90
2022-08-09T20:38:50.426Z,99.90
2022-08-09T20:41:02.281Z,99.90
2022-08-09T20:43:24.454Z,99.90
2022-08-09T20:46:01.406Z,99.90
2022-08-09T20:48:02.123Z,99.90
2022-08-09T20:50:15.591Z,99.90
2022-08-09T20:52:41.055Z,99.90
2022-08-09T20:54:53.052Z,99.90
2022-08-09T20:57:01.315Z,99.90
2022-08-09T20:59:09.953Z,99.90
2022-08-09T21:01:34.421Z,99.90
2022-08-09T21:04:08.271Z,99.90
2022-08-09T21:06:15.150Z,99.90
2022-08-09T21:08:36.658Z,99.90
2022-08-09T21:10:46.750Z,99.90
2022-08-09T21:13:01.064Z,99.90
2022-08-09T21:15:12.674Z,99.90
2022-08-09T21:18:22.559Z,99.90
2022-08-09T21:20:18.967Z,99.90
2022-08-09T21:22:38.636Z,99.90
2022-08-09T21:24:57.564Z,99.90
2022-08-09T21:27:50.359Z,99.90
2022-08-09T21:29:48.778Z,99.90
2022-08-09T21:31:57.356Z,99.90
2022-08-09T21:34:06.557Z,99.90
2022-08-09T21:36:14.012Z,99.90
2022-08-09T21:38:31.190Z,99.90
2022-08-09T21:40:38.884Z,99.90
2022-08-09T21:42:47.855Z,99.90
2022-08-09T21:45:01.995Z,99.90
2022-08-09T21:47:10.559Z,99.90
2022-08-09T21:49:26.297Z,99.90
2022-08-09T21:51:36.150Z,99.90
2022-08-09T21:53:50.701Z,99.90
2022-08-09T21:55:58.286Z,99.90
2022-08-09T21:58:05.535Z,99.90
2022-08-09T22:00:17.818Z,99.90
2022-08-09T22:02:36.760Z,99.90
2022-08-09T22:04:57.479Z,99.90
2022-08-09T22:07:05.368Z,99.90
2022-08-09T22:09:13.377Z,99.90
2022-08-09T22:12:05.790Z,99.90
2022-08-09T22:13:50.729Z,99.90
2022-08-09T22:15:58.724Z,99.90
2022-08-09T22:18:11.937Z,99.90
2022-08-09T22:20:21.823Z,99.90
2022-08-09T22:22:34.759Z,99.90
2022-08-09T22:24:53.522Z,99.90
2022-08-09T22:27:10.010Z,99.90
2022-08-09T22:29:17.498Z,99.90
2022-08-09T22:31:25.451Z,99.90
2022-08-09T22:33:48.495Z,99.90
2022-08-09T22:36:01.924Z,99.90
2022-08-09T22:38:10.800Z,99.90
2022-08-09T22:40:22.434Z,99.90
2022-08-09T22:42:29.879Z,99.90
2022-08-09T22:44:37.773Z,99.90
2022-08-09T22:48:13.620Z,99.90
2022-08-09T22:49:20.297Z,99.90
2022-08-09T22:51:30.702Z,99.90
2022-08-09T22:53:58.547Z,99.90
2022-08-09T22:56:31.005Z,99.90
2022-08-09T22:58:33.551Z,99.90
2022-08-09T23:00:41.984Z,99.90
2022-08-09T23:02:49.723Z,99.90
2022-08-09T23:04:57.165Z,99.90
2022-08-09T23:08:21.038Z,99.90
2022-08-09T23:09:52.181Z,99.90
2022-08-09T23:11:59.825Z,99.90
2022-08-09T23:14:16.965Z,99.90
2022-08-09T23:16:25.862Z,99.90
2022-08-09T23:18:32.887Z,99.90
2022-08-09T23:20:40.226Z,99.90
2022-08-09T23:22:49.194Z,99.90
2022-08-09T23:24:56.529Z,99.90
2022-08-09T23:27:03.815Z,99.90
2022-08-09T23:29:12.740Z,99.90
2022-08-09T23:31:20.068Z,99.90
2022-08-09T23:33:28.073Z,99.90
2022-08-09T23:36:04.863Z,99.90
2022-08-09T23:38:04.200Z,99.90
2022-08-09T23:40:12.406Z,99.90
2022-08-09T23:42:20.149Z,99.90
2022-08-09T23:44:27.222Z,99.90
2022-08-09T23:46:35.384Z,99.90
2022-08-09T23:48:42.661Z,99.90
2022-08-09T23:50:50.377Z,99.90
2022-08-09T23:52:57.646Z,99.90
2022-08-09T23:55:06.670Z,99.90
2022-08-09T23:57:18.057Z,99.90
2022-08-09T23:59:48.987Z,99.90
